createdAt,value
2018-10-04T00:01:44.844Z,96.40
2018-10-04T00:04:13.493Z,96.50
2018-10-04T00:06:42.163Z,96.00
2018-10-04T00:09:10.748Z,96.50
2018-10-04T00:11:39.405Z,96.40
2018-10-04T00:14:08.176Z,96.00
2018-10-04T00:16:36.819Z,96.70
2018-10-04T00:19:05.681Z,96.30
2018-10-04T00:21:34.317Z,97.90
2018-10-04T00:24:02.921Z,95.80
2018-10-04T00:26:31.621Z,97.30
2018-10-04T00:29:00.608Z,96.30
2018-10-04T00:31:29.971Z,96.70
2018-10-04T00:33:58.597Z,96.30
2018-10-04T00:36:27.230Z,97.80
2018-10-04T00:38:56.245Z,97.70
2018-10-04T00:41:24.974Z,97.20
2018-10-04T00:43:53.603Z,97.60
2018-10-04T00:46:22.351Z,98.40
2018-10-04T00:48:50.988Z,97.20
2018-10-04T00:51:19.637Z,96.60
2018-10-04T00:53:48.256Z,96.90
2018-10-04T00:56:16.932Z,96.90
2018-10-04T00:58:45.596Z,96.40
2018-10-04T01:01:14.302Z,96.40
2018-10-04T01:03:42.960Z,96.80
2018-10-04T01:06:11.735Z,97.50
2018-10-04T01:08:40.359Z,96.50
2018-10-04T01:11:08.996Z,97.10
2018-10-04T01:13:37.632Z,96.70
2018-10-04T01:16:06.273Z,97.00
2018-10-04T01:19:01.112Z,97.60
2018-10-04T01:21:29.743Z,98.30
2018-10-04T01:23:58.340Z,96.80
2018-10-04T01:26:27.069Z,96.40
2018-10-04T01:28:55.668Z,97.10
2018-10-04T01:31:24.489Z,96.40
2018-10-04T01:33:53.056Z,97.10
2018-10-04T01:36:21.783Z,97.30
2018-10-04T01:38:50.405Z,97.10
2018-10-04T01:41:19.132Z,96.60
2018-10-04T01:43:47.770Z,96.80
2018-10-04T01:46:17.647Z,96.20
2018-10-04T01:48:46.249Z,97.10
2018-10-04T01:51:14.882Z,96.90
2018-10-04T01:53:43.632Z,96.80
2018-10-04T01:56:12.257Z,97.60
2018-10-04T01:58:40.843Z,96.80
2018-10-04T02:01:09.472Z,96.70
2018-10-04T02:03:38.121Z,96.10
2018-10-04T02:06:06.921Z,97.20
2018-10-04T02:08:35.564Z,96.60
2018-10-04T02:11:04.252Z,96.60
2018-10-04T02:13:32.904Z,97.70
2018-10-04T02:16:01.547Z,97.20
2018-10-04T02:18:30.241Z,97.10
2018-10-04T02:20:59.281Z,97.20
2018-10-04T02:23:28.092Z,98.30
2018-10-04T02:25:56.796Z,98.00
2018-10-04T02:28:25.441Z,97.30
2018-10-04T02:30:54.085Z,97.40
2018-10-04T02:33:22.707Z,97.10
2018-10-04T02:35:51.328Z,97.00
2018-10-04T02:38:19.913Z,96.70
2018-10-04T02:40:48.543Z,96.80
2018-10-04T02:43:17.209Z,96.90
2018-10-04T02:45:45.868Z,96.40
2018-10-04T02:48:14.488Z,97.80
2018-10-04T02:50:43.132Z,97.90
2018-10-04T02:53:12.047Z,96.70
2018-10-04T02:55:46.008Z,97.80
2018-10-04T02:58:14.605Z,96.20
2018-10-04T03:00:43.233Z,97.40
2018-10-04T03:03:11.861Z,98.70
2018-10-04T03:05:40.483Z,97.40
2018-10-04T03:08:09.089Z,97.70
2018-10-04T03:10:37.716Z,96.70
2018-10-04T03:13:06.404Z,96.60
2018-10-04T03:15:35.098Z,97.00
2018-10-04T03:18:03.810Z,96.80
2018-10-04T03:20:32.445Z,97.00
2018-10-04T03:23:01.102Z,96.50
2018-10-04T03:25:29.757Z,96.20
2018-10-04T03:27:58.407Z,96.90
2018-10-04T03:30:27.001Z,97.40
2018-10-04T03:32:55.655Z,97.40
2018-10-04T03:35:24.289Z,97.20
2018-10-04T03:37:53.392Z,97.80
2018-10-04T03:40:22.104Z,96.90
2018-10-04T03:42:50.786Z,97.00
2018-10-04T03:45:19.449Z,97.20
2018-10-04T03:47:48.065Z,97.10
2018-10-04T03:50:16.837Z,96.80
2018-10-04T03:52:45.462Z,97.00
2018-10-04T03:55:14.084Z,98.50
2018-10-04T03:57:43.670Z,97.00
2018-10-04T04:00:12.296Z,96.00
2018-10-04T04:02:40.928Z,96.60
2018-10-04T04:05:09.536Z,96.60
2018-10-04T04:07:38.178Z,97.40
2018-10-04T04:10:06.832Z,96.30
2018-10-04T04:12:35.443Z,96.90
2018-10-04T04:15:04.066Z,97.50
2018-10-04T04:17:32.697Z,96.40
2018-10-04T04:20:01.354Z,97.10
2018-10-04T04:22:30.098Z,97.20
2018-10-04T04:24:58.800Z,97.90
2018-10-04T04:27:27.496Z,97.90
2018-10-04T04:29:56.122Z,96.20
2018-10-04T04:32:24.778Z,97.10
2018-10-04T04:34:53.469Z,97.60
2018-10-04T04:37:22.109Z,97.70
2018-10-04T04:39:50.774Z,97.30
2018-10-04T04:42:19.424Z,96.20
2018-10-04T04:44:48.030Z,96.40
2018-10-04T04:47:16.765Z,97.60
2018-10-04T04:49:45.349Z,97.40
2018-10-04T04:52:13.987Z,97.30
2018-10-04T04:55:45.495Z,97.00
2018-10-04T04:58:15.271Z,97.70
2018-10-04T05:00:45.093Z,96.80
2018-10-04T05:03:13.876Z,97.10
2018-10-04T05:05:42.621Z,98.50
2018-10-04T05:08:11.830Z,98.40
2018-10-04T05:10:40.660Z,97.00
2018-10-04T05:13:10.118Z,97.40
2018-10-04T05:15:38.781Z,97.30
2018-10-04T05:18:07.441Z,96.70
2018-10-04T05:20:36.054Z,97.40
2018-10-04T05:23:05.029Z,97.80
2018-10-04T05:25:33.666Z,98.90
2018-10-04T05:28:02.292Z,97.70
2018-10-04T05:30:30.934Z,98.00
2018-10-04T05:32:59.545Z,97.60
2018-10-04T05:35:28.183Z,97.00
2018-10-04T05:37:56.847Z,97.50
2018-10-04T05:40:27.077Z,96.70
2018-10-04T05:42:55.796Z,97.70
2018-10-04T05:45:24.424Z,97.20
2018-10-04T05:47:53.112Z,96.90
2018-10-04T05:50:21.729Z,96.80
2018-10-04T05:52:50.366Z,97.20
2018-10-04T05:55:18.980Z,96.80
2018-10-04T05:57:47.656Z,97.30
2018-10-04T06:00:37.564Z,97.10
2018-10-04T06:03:06.423Z,97.90
2018-10-04T06:05:35.096Z,99.50
2018-10-04T06:08:04.074Z,97.70
2018-10-04T06:10:33.284Z,99.30
2018-10-04T06:13:01.987Z,98.70
2018-10-04T06:15:30.808Z,98.00
2018-10-04T06:17:59.424Z,98.20
2018-10-04T06:20:35.215Z,98.40
2018-10-04T06:23:03.993Z,98.60
2018-10-04T06:25:32.744Z,99.20
2018-10-04T06:28:01.403Z,99.80
2018-10-04T06:30:30.024Z,99.20
2018-10-04T06:32:58.637Z,99.70
2018-10-04T06:35:27.313Z,99.60
2018-10-04T06:37:55.910Z,98.80
2018-10-04T06:40:24.509Z,98.20
2018-10-04T06:42:55.825Z,98.30
2018-10-04T06:45:24.416Z,99.90
2018-10-04T06:47:52.991Z,99.90
2018-10-04T06:50:22.167Z,99.90
2018-10-04T06:52:50.949Z,99.90
2018-10-04T06:55:19.553Z,98.80
2018-10-04T06:57:48.202Z,97.50
2018-10-04T07:00:16.765Z,96.50
2018-10-04T07:02:45.366Z,94.40
2018-10-04T07:05:14.001Z,94.00
2018-10-04T07:07:42.634Z,92.60
2018-10-04T07:10:13.402Z,92.50
2018-10-04T07:12:41.945Z,91.10
2018-10-04T07:15:10.565Z,91.00
2018-10-04T07:17:39.146Z,88.70
2018-10-04T07:20:07.765Z,88.40
2018-10-04T07:22:36.352Z,88.60
2018-10-04T07:25:05.105Z,88.40
2018-10-04T07:27:33.700Z,85.80
2018-10-04T07:30:02.333Z,85.40
2018-10-04T07:32:30.918Z,82.90
2018-10-04T07:34:59.678Z,82.50
2018-10-04T07:37:28.166Z,79.40
2018-10-04T07:39:56.776Z,81.40
2018-10-04T07:42:25.502Z,78.60
2018-10-04T07:44:54.009Z,78.70
2018-10-04T07:47:22.613Z,77.90
2018-10-04T07:49:51.212Z,75.70
2018-10-04T07:52:19.801Z,76.00
2018-10-04T07:54:48.416Z,73.70
2018-10-04T07:57:17.008Z,74.30
2018-10-04T07:59:45.689Z,72.30
2018-10-04T08:02:14.278Z,72.10
2018-10-04T08:04:42.899Z,76.20
2018-10-04T08:07:11.787Z,71.80
2018-10-04T08:09:40.407Z,69.70
2018-10-04T08:12:09.038Z,70.40
2018-10-04T08:14:37.660Z,69.40
2018-10-04T08:17:06.570Z,73.10
2018-10-04T08:19:35.205Z,67.70
2018-10-04T08:22:03.805Z,70.00
2018-10-04T08:24:32.481Z,69.30
2018-10-04T08:27:01.284Z,67.40
2018-10-04T08:29:30.787Z,62.50
2018-10-04T08:32:00.471Z,63.20
2018-10-04T08:34:32.296Z,66.00
2018-10-04T08:37:00.944Z,61.60
2018-10-04T08:39:29.589Z,59.80
2018-10-04T08:41:58.241Z,57.00
2018-10-04T08:44:26.824Z,56.00
2018-10-04T08:46:55.445Z,61.20
2018-10-04T08:49:24.292Z,57.10
2018-10-04T08:51:53.597Z,55.10
2018-10-04T08:54:28.311Z,55.80
2018-10-04T08:56:57.759Z,55.90
2018-10-04T08:59:26.405Z,55.30
2018-10-04T09:01:55.797Z,52.60
2018-10-04T09:04:24.426Z,53.80
2018-10-04T09:06:53.164Z,58.70
2018-10-04T09:09:22.503Z,52.20
2018-10-04T09:11:51.853Z,54.10
2018-10-04T09:14:20.678Z,54.00
2018-10-04T09:16:49.315Z,53.70
2018-10-04T09:19:17.909Z,51.20
2018-10-04T09:21:46.669Z,49.90
2018-10-04T09:24:15.236Z,51.50
2018-10-04T09:26:43.866Z,51.60
2018-10-04T09:29:13.157Z,47.40
2018-10-04T09:31:45.881Z,48.00
2018-10-04T09:34:14.459Z,46.90
2018-10-04T09:36:43.091Z,47.10
2018-10-04T09:39:12.527Z,44.90
2018-10-04T09:41:41.282Z,44.00
2018-10-04T09:44:09.887Z,43.90
2018-10-04T09:46:38.522Z,45.60
2018-10-04T09:49:07.140Z,42.60
2018-10-04T09:51:41.006Z,41.80
2018-10-04T09:54:09.718Z,44.40
2018-10-04T09:56:43.685Z,42.70
2018-10-04T09:59:12.281Z,41.20
2018-10-04T10:01:46.141Z,41.60
2018-10-04T10:04:14.768Z,46.60
2018-10-04T10:06:43.390Z,40.70
2018-10-04T10:09:12.060Z,43.90
2018-10-04T10:11:40.755Z,44.00
2018-10-04T10:14:09.424Z,40.70
2018-10-04T10:16:38.028Z,40.30
2018-10-04T10:19:07.325Z,43.10
2018-10-04T10:21:35.947Z,41.10
2018-10-04T10:24:04.572Z,43.70
2018-10-04T10:26:33.187Z,42.00
2018-10-04T10:29:01.772Z,38.90
2018-10-04T10:31:30.392Z,40.10
2018-10-04T10:33:58.968Z,41.90
2018-10-04T10:36:27.581Z,44.10
2018-10-04T10:38:56.178Z,41.40
2018-10-04T10:41:24.817Z,40.50
2018-10-04T10:43:53.408Z,44.00
2018-10-04T10:46:22.096Z,38.80
2018-10-04T10:48:50.641Z,42.30
2018-10-04T10:51:19.263Z,40.50
2018-10-04T10:53:47.885Z,43.50
2018-10-04T10:56:16.501Z,42.40
2018-10-04T10:58:45.077Z,39.30
2018-10-04T11:01:13.708Z,41.00
2018-10-04T11:03:42.387Z,40.80
2018-10-04T11:06:10.992Z,40.10
2018-10-04T11:08:39.570Z,42.60
2018-10-04T11:11:08.186Z,43.40
2018-10-04T11:13:36.790Z,41.90
2018-10-04T11:16:05.557Z,43.70
2018-10-04T11:18:34.166Z,44.30
2018-10-04T11:21:02.818Z,44.50
2018-10-04T11:23:32.009Z,45.70
2018-10-04T11:26:00.645Z,46.50
2018-10-04T11:28:29.314Z,45.60
2018-10-04T11:30:57.938Z,44.90
2018-10-04T11:33:26.535Z,46.00
2018-10-04T11:35:55.143Z,47.10
2018-10-04T11:38:23.797Z,47.50
2018-10-04T11:40:52.480Z,47.60
2018-10-04T11:43:23.353Z,48.20
2018-10-04T11:45:52.008Z,48.20
2018-10-04T11:48:23.154Z,48.60
2018-10-04T11:50:51.721Z,47.90
2018-10-04T11:53:20.344Z,49.10
2018-10-04T11:55:49.002Z,49.40
2018-10-04T11:58:18.304Z,50.10
2018-10-04T12:00:46.968Z,49.80
2018-10-04T12:03:15.605Z,49.40
2018-10-04T12:05:44.225Z,50.30
2018-10-04T12:08:12.787Z,49.70
2018-10-04T12:10:41.413Z,49.00
2018-10-04T12:13:10.018Z,49.70
2018-10-04T12:15:38.662Z,48.20
2018-10-04T12:18:07.360Z,49.20
2018-10-04T12:20:35.953Z,49.30
2018-10-04T12:23:04.561Z,50.10
2018-10-04T12:25:33.161Z,49.80
2018-10-04T12:28:01.773Z,49.50
2018-10-04T12:30:30.398Z,50.00
2018-10-04T12:32:59.011Z,48.40
2018-10-04T12:35:27.590Z,48.00
2018-10-04T12:37:56.237Z,48.60
2018-10-04T12:40:24.820Z,49.20
2018-10-04T12:42:53.446Z,47.80
2018-10-04T12:45:22.032Z,47.70
2018-10-04T12:47:50.627Z,45.90
2018-10-04T12:50:19.213Z,46.30
2018-10-04T12:52:47.820Z,46.20
2018-10-04T12:55:16.425Z,48.20
2018-10-04T12:57:45.036Z,46.10
2018-10-04T13:00:13.624Z,46.70
2018-10-04T13:02:42.229Z,45.90
2018-10-04T13:05:10.851Z,44.70
2018-10-04T13:07:39.450Z,45.80
2018-10-04T13:10:08.085Z,45.50
2018-10-04T13:12:36.710Z,45.20
2018-10-04T13:15:05.456Z,46.60
2018-10-04T13:17:34.093Z,45.90
2018-10-04T13:20:02.765Z,46.20
2018-10-04T13:22:31.381Z,47.50
2018-10-04T13:24:59.971Z,48.20
2018-10-04T13:27:28.639Z,47.90
2018-10-04T13:29:57.253Z,47.80
2018-10-04T13:32:25.878Z,47.70
2018-10-04T13:34:54.461Z,48.20
2018-10-04T13:37:25.049Z,49.10
2018-10-04T13:39:53.654Z,48.30
2018-10-04T13:42:22.307Z,49.80
2018-10-04T13:44:50.886Z,48.90
2018-10-04T13:47:19.494Z,49.30
2018-10-04T13:49:48.120Z,50.30
2018-10-04T13:52:16.727Z,49.40
2018-10-04T13:54:45.313Z,49.90
2018-10-04T13:57:13.916Z,50.20
2018-10-04T13:59:42.496Z,51.40
2018-10-04T14:02:11.155Z,51.50
2018-10-04T14:04:39.744Z,51.10
2018-10-04T14:07:08.353Z,51.20
2018-10-04T14:09:36.939Z,51.70
2018-10-04T14:12:05.533Z,52.10
2018-10-04T14:14:34.127Z,51.80
2018-10-04T14:17:02.732Z,52.20
2018-10-04T14:19:31.365Z,52.50
2018-10-04T14:21:59.984Z,52.20
2018-10-04T14:24:28.831Z,51.90
2018-10-04T14:26:57.468Z,52.20
2018-10-04T14:29:26.091Z,52.40
2018-10-04T14:31:54.688Z,52.80
2018-10-04T14:34:23.274Z,53.00
2018-10-04T14:36:51.886Z,52.70
2018-10-04T14:39:20.521Z,53.20
2018-10-04T14:41:49.140Z,53.70
2018-10-04T14:44:17.743Z,53.60
2018-10-04T14:46:46.425Z,54.40
2018-10-04T14:49:15.300Z,53.90
2018-10-04T14:51:44.345Z,54.40
2018-10-04T14:54:12.944Z,54.50
2018-10-04T14:56:41.553Z,53.80
2018-10-04T14:59:10.195Z,53.70
2018-10-04T15:01:38.974Z,52.90
2018-10-04T15:04:07.592Z,53.70
2018-10-04T15:06:36.496Z,53.70
2018-10-04T15:09:07.313Z,53.10
2018-10-04T15:11:35.998Z,52.90
2018-10-04T15:14:04.973Z,53.10
2018-10-04T15:16:33.586Z,53.10
2018-10-04T15:19:02.173Z,53.40
2018-10-04T15:21:30.797Z,52.90
2018-10-04T15:23:59.532Z,52.40
2018-10-04T15:26:28.214Z,53.20
2018-10-04T15:28:56.840Z,52.10
2018-10-04T15:31:25.421Z,52.40
2018-10-04T15:33:54.050Z,52.30
2018-10-04T15:36:22.620Z,52.50
2018-10-04T15:38:51.233Z,53.30
2018-10-04T15:41:20.216Z,52.10
2018-10-04T15:43:48.928Z,51.70
2018-10-04T15:46:17.572Z,51.80
2018-10-04T15:48:47.180Z,52.30
2018-10-04T15:51:15.830Z,52.50
2018-10-04T15:53:44.469Z,52.00
2018-10-04T15:56:13.082Z,52.60
2018-10-04T15:58:41.696Z,52.30
2018-10-04T16:01:10.330Z,52.40
2018-10-04T16:03:38.994Z,52.80
2018-10-04T16:06:07.892Z,52.30
2018-10-04T16:08:36.493Z,52.70
2018-10-04T16:11:05.160Z,52.80
2018-10-04T16:13:33.787Z,53.20
2018-10-04T16:16:02.403Z,52.80
2018-10-04T16:18:31.019Z,53.00
2018-10-04T16:20:59.937Z,53.40
2018-10-04T16:23:28.544Z,53.30
2018-10-04T16:25:57.149Z,53.50
2018-10-04T16:28:25.781Z,54.00
2018-10-04T16:30:54.531Z,53.80
2018-10-04T16:33:23.135Z,54.90
2018-10-04T16:35:51.775Z,54.20
2018-10-04T16:38:21.490Z,54.80
2018-10-04T16:40:50.036Z,55.20
2018-10-04T16:43:19.678Z,58.20
2018-10-04T16:45:48.309Z,60.90
2018-10-04T16:48:16.942Z,63.20
2018-10-04T16:50:45.529Z,64.30
2018-10-04T16:53:14.162Z,67.40
2018-10-04T16:55:42.752Z,67.30
2018-10-04T16:58:18.208Z,68.30
2018-10-04T17:00:46.856Z,69.00
2018-10-04T17:03:15.513Z,71.90
2018-10-04T17:05:44.084Z,72.00
2018-10-04T17:08:12.824Z,72.90
2018-10-04T17:10:41.426Z,73.10
2018-10-04T17:13:10.051Z,72.90
2018-10-04T17:15:38.658Z,74.20
2018-10-04T17:18:08.216Z,74.70
2018-10-04T17:20:39.032Z,74.90
2018-10-04T17:23:07.648Z,75.50
2018-10-04T17:25:36.225Z,75.30
2018-10-04T17:28:04.893Z,75.80
2018-10-04T17:30:33.508Z,77.50
2018-10-04T17:33:02.153Z,78.10
2018-10-04T17:35:30.736Z,76.20
2018-10-04T17:37:59.359Z,80.30
2018-10-04T17:40:27.928Z,80.60
2018-10-04T17:42:56.649Z,80.00
2018-10-04T17:45:25.237Z,80.50
2018-10-04T17:47:54.020Z,82.60
2018-10-04T17:50:22.653Z,80.60
2018-10-04T17:52:51.311Z,81.20
2018-10-04T17:55:19.901Z,81.80
2018-10-04T17:57:48.501Z,82.70
2018-10-04T18:00:17.090Z,82.40
2018-10-04T18:02:45.695Z,83.60
2018-10-04T18:05:14.297Z,84.40
2018-10-04T18:07:45.937Z,84.80
2018-10-04T18:10:14.533Z,84.00
2018-10-04T18:12:43.203Z,84.30
2018-10-04T18:15:11.817Z,84.20
2018-10-04T18:17:40.442Z,83.80
2018-10-04T18:20:09.032Z,85.40
2018-10-04T18:22:37.644Z,85.20
2018-10-04T18:25:06.279Z,85.90
2018-10-04T18:27:34.933Z,86.60
2018-10-04T18:30:03.708Z,86.60
2018-10-04T18:32:32.411Z,86.70
2018-10-04T18:35:01.346Z,87.40
2018-10-04T18:37:29.952Z,87.80
2018-10-04T18:39:58.545Z,86.30
2018-10-04T18:42:27.365Z,85.50
2018-10-04T18:44:55.938Z,88.00
2018-10-04T18:47:24.591Z,87.20
2018-10-04T18:49:53.164Z,86.60
2018-10-04T18:52:21.780Z,86.70
2018-10-04T18:54:50.348Z,86.50
2018-10-04T18:57:18.921Z,86.90
2018-10-04T18:59:47.645Z,88.60
2018-10-04T19:02:16.198Z,89.50
2018-10-04T19:04:44.815Z,85.20
2018-10-04T19:07:13.405Z,87.00
2018-10-04T19:09:44.441Z,85.90
2018-10-04T19:12:14.380Z,87.60
2018-10-04T19:14:45.644Z,86.40
2018-10-04T19:17:16.239Z,87.00
2018-10-04T19:19:48.441Z,86.20
2018-10-04T19:22:18.774Z,88.10
2018-10-04T19:24:49.956Z,87.20
2018-10-04T19:27:19.767Z,85.80
2018-10-04T19:29:48.461Z,88.20
2018-10-04T19:32:17.050Z,87.90
2018-10-04T19:34:45.658Z,87.20
2018-10-04T19:37:14.266Z,87.90
2018-10-04T19:39:42.873Z,88.10
2018-10-04T19:42:11.489Z,89.00
2018-10-04T19:44:40.086Z,90.20
2018-10-04T19:47:08.669Z,90.30
2018-10-04T19:49:37.479Z,91.00
2018-10-04T19:52:06.114Z,90.60
2018-10-04T19:54:34.716Z,90.40
2018-10-04T19:57:03.300Z,91.10
2018-10-04T19:59:31.925Z,90.50
2018-10-04T20:02:00.528Z,90.20
2018-10-04T20:04:29.143Z,91.20
2018-10-04T20:06:57.741Z,91.40
2018-10-04T20:09:26.357Z,91.10
2018-10-04T20:11:54.924Z,91.20
2018-10-04T20:14:23.624Z,90.80
2018-10-04T20:16:52.221Z,91.40
2018-10-04T20:19:20.863Z,90.90
2018-10-04T20:21:49.429Z,91.50
2018-10-04T20:24:18.035Z,91.70
2018-10-04T20:26:46.637Z,91.70
2018-10-04T20:29:15.245Z,91.70
2018-10-04T20:31:43.851Z,91.90
2018-10-04T20:34:12.463Z,91.60
2018-10-04T20:36:41.047Z,91.30
2018-10-04T20:39:09.640Z,91.60
2018-10-04T20:41:38.242Z,91.70
2018-10-04T20:44:07.196Z,91.80
2018-10-04T20:46:35.786Z,93.00
2018-10-04T20:49:04.419Z,93.20
2018-10-04T20:51:32.996Z,91.80
2018-10-04T20:54:01.617Z,91.90
2018-10-04T20:56:30.189Z,92.60
2018-10-04T20:58:58.839Z,92.50
2018-10-04T21:01:27.415Z,92.00
2018-10-04T21:03:56.158Z,92.10
2018-10-04T21:06:24.801Z,91.80
2018-10-04T21:08:53.405Z,91.30
2018-10-04T21:11:21.997Z,91.20
2018-10-04T21:13:50.608Z,92.10
2018-10-04T21:16:19.197Z,92.30
2018-10-04T21:18:47.854Z,91.70
2018-10-04T21:21:16.450Z,92.00
2018-10-04T21:23:45.833Z,92.60
2018-10-04T21:26:14.681Z,91.90
2018-10-04T21:28:47.783Z,91.40
2018-10-04T21:31:16.838Z,92.10
2018-10-04T21:33:45.518Z,92.30
2018-10-04T21:36:15.567Z,92.60
2018-10-04T21:38:44.247Z,92.50
2018-10-04T21:41:12.868Z,92.60
2018-10-04T21:43:41.517Z,92.90
2018-10-04T21:46:10.106Z,93.30
2018-10-04T21:48:38.716Z,93.20
2018-10-04T21:51:07.665Z,92.80
2018-10-04T21:53:36.326Z,93.80
2018-10-04T21:56:04.888Z,92.50
2018-10-04T21:58:33.494Z,93.70
2018-10-04T22:01:04.597Z,92.90
2018-10-04T22:03:33.214Z,93.30
2018-10-04T22:06:01.835Z,93.90
2018-10-04T22:08:30.434Z,91.20
2018-10-04T22:10:59.088Z,92.90
2018-10-04T22:13:27.708Z,93.60
2018-10-04T22:15:56.296Z,91.80
2018-10-04T22:18:24.917Z,92.40
2018-10-04T22:20:53.517Z,92.50
2018-10-04T22:23:22.134Z,95.00
2018-10-04T22:25:50.716Z,93.10
2018-10-04T22:28:19.337Z,93.80
2018-10-04T22:30:47.988Z,94.50
2018-10-04T22:33:16.664Z,94.90
2018-10-04T22:35:45.232Z,94.00
2018-10-04T22:38:13.865Z,93.10
2018-10-04T22:40:42.468Z,93.00
2018-10-04T22:43:11.072Z,93.70
2018-10-04T22:45:39.685Z,93.20
2018-10-04T22:48:08.276Z,92.60
2018-10-04T22:50:36.877Z,94.70
2018-10-04T22:53:05.502Z,94.20
2018-10-04T22:55:34.093Z,94.60
2018-10-04T22:58:03.158Z,94.00
2018-10-04T23:00:32.641Z,95.50
2018-10-04T23:03:01.611Z,94.50
2018-10-04T23:05:30.449Z,95.00
2018-10-04T23:07:59.020Z,94.90
2018-10-04T23:10:27.629Z,95.10
2018-10-04T23:12:56.245Z,95.20
2018-10-04T23:15:25.250Z,94.70
2018-10-04T23:17:53.821Z,93.80
2018-10-04T23:20:22.415Z,94.10
2018-10-04T23:22:50.984Z,93.90
2018-10-04T23:25:19.584Z,94.20
2018-10-04T23:27:48.152Z,94.20
2018-10-04T23:30:16.744Z,94.70
2018-10-04T23:32:45.638Z,95.60
2018-10-04T23:35:14.237Z,94.30
2018-10-04T23:37:43.006Z,95.60
2018-10-04T23:40:11.634Z,93.80
2018-10-04T23:42:40.305Z,94.30
2018-10-04T23:45:09.208Z,95.70
2018-10-04T23:47:37.810Z,94.40
2018-10-04T23:50:06.544Z,93.60
2018-10-04T23:52:36.381Z,94.00
2018-10-04T23:55:05.457Z,94.70
2018-10-04T23:57:34.051Z,94.80
